Time;durP1;ratioP1;P1;durP2;ratioP2;P2;SDS_P1;SDS_P2;PMS_P1;PMS_P2;Temp;Humidity;BMP_temperature;BMP_pressure;BME280_temperature;BME280_humidity;BME280_pressure;Samples;Min_cycle;Max_cycle;Signal;HPM_P1;HPM_P2
2022/08/10 00:00:27;;;;;;;0.20;0.20;;;12.00;99.90;;;;;;4959019;29;20102;-74
2022/08/10 00:02:55;;;;;;;1.88;0.25;;;11.80;99.90;;;;;;4972545;28;20047;-73
2022/08/10 00:05:22;;;;;;;0.00;0.00;;;11.80;99.90;;;;;;4978527;28;20039;-74
2022/08/10 00:07:48;;;;;;;0.32;0.32;;;11.90;99.90;;;;;;4985739;28;20051;-74
2022/08/10 00:10:15;;;;;;;0.22;0.22;;;12.00;99.90;;;;;;4986263;28;20046;-73
2022/08/10 00:12:42;;;;;;;0.60;0.05;;;12.20;99.90;;;;;;4963831;28;20047;-74
2022/08/10 00:15:09;;;;;;;0.10;0.00;;;12.30;99.90;;;;;;4965756;28;20082;-73
2022/08/10 00:17:36;;;;;;;0.05;0.05;;;12.30;99.90;;;;;;4964077;29;20126;-73
2022/08/10 00:20:03;;;;;;;0.00;0.00;;;12.40;99.90;;;;;;4963615;29;20405;-73
2022/08/10 00:22:29;;;;;;;0.00;0.00;;;12.40;99.90;;;;;;4962712;28;20045;-73
2022/08/10 00:24:56;;;;;;;0.35;0.35;;;12.40;99.90;;;;;;4964625;28;20050;-73
2022/08/10 00:27:25;;;;;;;0.45;0.45;;;12.30;99.90;;;;;;4963486;28;20055;-74
2022/08/10 00:29:51;;;;;;;0.00;0.00;;;12.30;99.90;;;;;;4962716;29;20067;-73
2022/08/10 00:32:17;;;;;;;0.08;0.08;;;12.30;99.90;;;;;;4964153;28;20047;-73
2022/08/10 00:34:42;;;;;;;0.55;0.45;;;12.20;99.90;;;;;;4964270;28;20047;-74
2022/08/10 00:37:08;;;;;;;0.00;0.00;;;12.20;99.90;;;;;;4963732;28;20122;-73
2022/08/10 00:39:34;;;;;;;0.00;0.00;;;12.10;99.90;;;;;;4963609;29;20043;-74
2022/08/10 00:41:59;;;;;;;0.10;0.08;;;12.10;99.90;;;;;;4967095;28;20038;-74
2022/08/10 00:44:25;;;;;;;0.38;0.10;;;12.10;99.90;;;;;;4981794;28;20528;-73
2022/08/10 00:46:51;;;;;;;1.05;0.82;;;12.20;99.90;;;;;;4964626;28;20130;-73
2022/08/10 00:49:16;;;;;;;0.32;0.30;;;12.30;99.90;;;;;;4962430;29;20039;-74
2022/08/10 00:51:42;;;;;;;0.00;0.00;;;12.40;99.90;;;;;;4964322;28;20043;-74
2022/08/10 00:54:08;;;;;;;0.20;0.20;;;12.20;99.90;;;;;;4964564;29;20039;-73
2022/08/10 00:56:35;;;;;;;0.00;0.00;;;12.10;99.90;;;;;;4979131;28;20078;-74
2022/08/10 00:59:01;;;;;;;0.47;0.25;;;12.00;99.90;;;;;;4984772;28;20058;-73
2022/08/10 01:01:26;;;;;;;0.75;0.35;;;12.00;99.90;;;;;;4979333;28;20035;-73
2022/08/10 01:03:52;;;;;;;0.43;0.22;;;12.00;99.90;;;;;;4963710;29;20039;-74
2022/08/10 01:06:42;;;;;;;0.03;0.00;;;11.90;99.90;;;;;;4962594;28;20051;-74
2022/08/10 01:09:15;;;;;;;0.35;0.35;;;11.90;99.90;;;;;;4963397;29;20047;-73
2022/08/10 01:11:50;;;;;;;0.10;0.10;;;12.00;99.90;;;;;;4969699;28;20058;-73
2022/08/10 01:14:54;;;;;;;0.00;0.00;;;12.00;99.90;;;;;;4984437;28;20053;-73
2022/08/10 01:17:48;;;;;;;0.08;0.08;;;12.10;99.90;;;;;;4983390;28;20046;-73
2022/08/10 01:20:38;;;;;;;0.43;0.38;;;12.20;99.90;;;;;;4982478;28;20473;-74
2022/08/10 01:23:34;;;;;;;0.50;0.10;;;12.20;99.90;;;;;;4981751;28;20051;-73
2022/08/10 01:26:18;;;;;;;0.15;0.10;;;12.20;99.90;;;;;;4982725;28;20049;-73
2022/08/10 01:29:02;;;;;;;0.75;0.32;;;12.30;99.90;;;;;;4980163;28;20078;-74
2022/08/10 01:31:33;;;;;;;0.40;0.40;;;12.50;99.90;;;;;;4977421;28;20039;-74
2022/08/10 01:34:06;;;;;;;0.57;0.45;;;12.60;99.90;;;;;;4961735;29;20051;-74
2022/08/10 01:36:43;;;;;;;0.70;0.20;;;12.70;99.90;;;;;;4960273;29;20105;-73
2022/08/10 01:39:14;;;;;;;0.32;0.32;;;12.80;99.90;;;;;;4962284;29;20097;-73
2022/08/10 01:41:43;;;;;;;0.40;0.35;;;12.80;99.90;;;;;;4966956;28;20394;-74
2022/08/10 01:44:32;;;;;;;0.38;0.22;;;12.70;99.90;;;;;;4981243;28;20046;-73
2022/08/10 01:49:52;;;;;;;0.13;0.10;;;12.50;99.90;;;;;;4980164;28;20047;-73
2022/08/10 01:52:21;;;;;;;0.28;0.28;;;12.50;99.90;;;;;;4970189;28;20055;-73
2022/08/10 01:54:49;;;;;;;0.80;0.63;;;12.50;99.90;;;;;;4960371;29;20043;-74
2022/08/10 01:57:16;;;;;;;0.90;0.68;;;12.60;99.90;;;;;;4961164;29;20087;-73
2022/08/10 01:59:44;;;;;;;0.15;0.15;;;12.50;99.90;;;;;;4961119;29;20047;-74
2022/08/10 02:02:12;;;;;;;0.13;0.13;;;12.40;99.90;;;;;;4961279;28;20105;-74
2022/08/10 02:04:40;;;;;;;1.23;0.85;;;12.50;99.90;;;;;;4961317;29;20070;-74
2022/08/10 02:07:10;;;;;;;2.20;1.15;;;12.60;99.90;;;;;;4960342;28;20101;-74
2022/08/10 02:09:41;;;;;;;0.10;0.10;;;12.60;99.90;;;;;;4970875;28;20036;-73
2022/08/10 02:12:10;;;;;;;0.13;0.13;;;12.50;99.90;;;;;;4960662;28;20051;-73
2022/08/10 02:14:43;;;;;;;0.28;0.13;;;12.50;99.90;;;;;;4961041;28;20399;-74
2022/08/10 02:17:15;;;;;;;0.47;0.35;;;12.50;99.90;;;;;;4959328;28;20047;-74
2022/08/10 02:19:42;;;;;;;0.45;0.45;;;12.70;99.90;;;;;;4960758;29;20051;-73
2022/08/10 02:22:08;;;;;;;2.42;0.32;;;12.80;99.90;;;;;;4960859;29;20070;-74
2022/08/10 02:24:36;;;;;;;0.22;0.22;;;13.00;99.90;;;;;;4961228;29;20418;-74
2022/08/10 02:27:04;;;;;;;0.28;0.28;;;12.80;99.90;;;;;;4961990;28;20074;-74
2022/08/10 02:29:31;;;;;;;0.93;0.90;;;12.80;99.90;;;;;;4980195;28;20047;-73
2022/08/10 02:31:57;;;;;;;0.80;0.60;;;12.70;99.90;;;;;;4979372;28;20042;-74
2022/08/10 02:34:24;;;;;;;0.20;0.10;;;12.70;99.90;;;;;;4980217;28;20047;-73
2022/08/10 02:36:54;;;;;;;0.00;0.00;;;12.60;99.90;;;;;;4968407;28;20082;-74
2022/08/10 02:39:22;;;;;;;0.17;0.17;;;12.60;99.90;;;;;;4960109;28;20043;-74
2022/08/10 02:41:56;;;;;;;0.93;0.77;;;12.60;99.90;;;;;;4960338;29;20058;-74
2022/08/10 02:44:43;;;;;;;0.10;0.10;;;12.60;99.90;;;;;;4960432;29;20130;-74
2022/08/10 02:47:21;;;;;;;0.40;0.30;;;12.60;99.90;;;;;;4963170;28;20418;-74
2022/08/10 02:50:02;;;;;;;0.75;0.75;;;12.60;99.90;;;;;;4981720;28;20119;-74
2022/08/10 02:52:37;;;;;;;0.80;0.47;;;12.60;99.90;;;;;;4980724;28;20378;-74
2022/08/10 02:55:21;;;;;;;0.60;0.57;;;12.60;99.90;;;;;;4981010;28;20043;-74
2022/08/10 02:57:53;;;;;;;0.70;0.55;;;12.60;99.90;;;;;;4965699;28;20055;-73
2022/08/10 03:00:19;;;;;;;0.10;0.10;;;12.80;99.90;;;;;;4961406;29;20051;-73
2022/08/10 03:02:48;;;;;;;1.55;1.10;;;13.00;99.90;;;;;;4961332;29;20189;-73
2022/08/10 03:05:16;;;;;;;0.65;0.43;;;13.10;99.90;;;;;;4961154;29;20043;-73
2022/08/10 03:07:57;;;;;;;0.20;0.20;;;13.10;99.90;;;;;;4960482;28;20051;-73
2022/08/10 03:10:27;;;;;;;1.00;0.85;;;13.20;99.90;;;;;;4960190;28;20058;-73
2022/08/10 03:12:58;;;;;;;0.45;0.45;;;13.10;99.90;;;;;;4960720;29;20505;-73
2022/08/10 03:15:25;;;;;;;1.38;1.17;;;13.10;99.90;;;;;;4974674;28;20074;-73
2022/08/10 03:17:52;;;;;;;2.38;1.35;;;13.00;99.90;;;;;;4977703;28;20323;-74
2022/08/10 03:20:20;;;;;;;0.30;0.30;;;12.90;99.90;;;;;;4980290;28;20047;-73
2022/08/10 03:22:49;;;;;;;1.42;0.98;;;12.80;99.90;;;;;;4979274;28;20051;-74
2022/08/10 03:25:17;;;;;;;0.13;0.10;;;12.70;99.90;;;;;;4980462;28;20054;-73
2022/08/10 03:27:44;;;;;;;0.20;0.20;;;12.60;99.90;;;;;;4965472;28;20065;-74
2022/08/10 03:30:10;;;;;;;5.53;1.50;;;12.60;99.90;;;;;;4962298;29;20043;-73
2022/08/10 03:32:37;;;;;;;0.43;0.20;;;12.50;99.90;;;;;;4962959;29;20043;-73
2022/08/10 03:35:05;;;;;;;1.23;1.13;;;12.60;99.90;;;;;;4963173;29;20043;-73
2022/08/10 03:37:31;;;;;;;0.40;0.25;;;12.60;99.90;;;;;;4976714;28;20137;-73
2022/08/10 03:39:57;;;;;;;1.45;1.35;;;12.60;99.90;;;;;;4981887;28;20075;-73
2022/08/10 03:42:25;;;;;;;0.55;0.43;;;12.60;99.90;;;;;;4981164;28;20070;-74
2022/08/10 03:44:52;;;;;;;1.15;0.55;;;12.60;99.90;;;;;;4981539;28;20050;-73
2022/08/10 03:47:19;;;;;;;0.95;0.65;;;12.50;99.90;;;;;;4966915;28;20043;-73
2022/08/10 03:49:47;;;;;;;1.45;0.75;;;12.50;99.90;;;;;;4959564;29;20043;-73
2022/08/10 03:52:14;;;;;;;1.55;0.50;;;12.50;99.90;;;;;;4958949;29;20051;-73
2022/08/10 03:54:41;;;;;;;0.85;0.77;;;12.40;99.90;;;;;;4958588;29;20047;-73
2022/08/10 03:57:06;;;;;;;0.32;0.32;;;12.40;99.90;;;;;;4970132;28;20153;-73
2022/08/10 03:59:34;;;;;;;0.00;0.00;;;12.40;99.90;;;;;;4979409;28;20074;-73
2022/08/10 04:02:00;;;;;;;0.45;0.45;;;12.40;99.90;;;;;;4979261;28;20082;-74
2022/08/10 04:04:26;;;;;;;1.08;0.80;;;12.40;99.90;;;;;;4980891;28;20065;-73
2022/08/10 04:06:57;;;;;;;0.50;0.38;;;12.40;99.90;;;;;;4972375;28;20530;-73
2022/08/10 04:09:26;;;;;;;0.60;0.43;;;12.40;99.90;;;;;;4960365;29;20546;-73
2022/08/10 04:11:52;;;;;;;0.70;0.40;;;12.50;99.90;;;;;;4960406;29;20054;-73
2022/08/10 04:14:17;;;;;;;1.75;0.77;;;12.60;99.90;;;;;;4960575;29;20031;-73
2022/08/10 04:16:43;;;;;;;1.73;0.38;;;12.60;99.90;;;;;;4966542;28;20051;-73
2022/08/10 04:19:09;;;;;;;0.40;0.25;;;12.70;99.90;;;;;;4980575;28;20049;-73
2022/08/10 04:21:41;;;;;;;0.93;0.43;;;12.80;99.90;;;;;;4980977;28;20049;-73
2022/08/10 04:24:13;;;;;;;0.63;0.52;;;12.80;99.90;;;;;;4979748;28;20097;-74
2022/08/10 04:26:39;;;;;;;0.30;0.13;;;14.00;99.90;;;;;;4973961;28;20043;-73
2022/08/10 04:29:04;;;;;;;0.70;0.60;;;12.90;99.90;;;;;;4960487;28;20186;-73
2022/08/10 04:31:32;;;;;;;0.25;0.25;;;12.90;99.90;;;;;;4961569;29;20410;-73
2022/08/10 04:34:00;;;;;;;1.85;0.68;;;12.90;99.90;;;;;;4961957;28;20047;-73
2022/08/10 04:36:27;;;;;;;0.80;0.80;;;13.00;99.90;;;;;;4963192;28;20457;-74
2022/08/10 04:38:54;;;;;;;0.43;0.43;;;12.90;99.90;;;;;;4979973;28;20070;-73
2022/08/10 04:41:19;;;;;;;0.47;0.38;;;13.00;99.90;;;;;;4980767;28;20046;-73
2022/08/10 04:43:45;;;;;;;0.63;0.52;;;13.10;99.90;;;;;;4981036;28;20454;-72
2022/08/10 04:46:11;;;;;;;4.22;0.88;;;13.10;99.90;;;;;;4964759;28;20410;-73
2022/08/10 04:48:36;;;;;;;0.85;0.85;;;13.20;99.90;;;;;;4961205;29;20514;-73
2022/08/10 04:51:03;;;;;;;0.55;0.55;;;13.30;99.90;;;;;;4959778;29;20043;-73
2022/08/10 04:53:28;;;;;;;0.25;0.22;;;13.40;99.90;;;;;;4961205;28;20046;-73
2022/08/10 04:55:54;;;;;;;0.20;0.20;;;13.90;99.90;;;;;;4963629;28;20043;-73
2022/08/10 04:58:19;;;;;;;0.57;0.45;;;13.40;99.90;;;;;;4981807;28;20086;-73
2022/08/10 05:00:45;;;;;;;0.98;0.73;;;13.40;99.90;;;;;;4982632;28;20054;-73
2022/08/10 05:03:10;;;;;;;1.35;0.75;;;13.50;99.90;;;;;;4983293;28;20066;-73
2022/08/10 05:05:36;;;;;;;2.45;1.17;;;13.50;99.90;;;;;;4982761;28;20043;-74
2022/08/10 05:08:02;;;;;;;0.63;0.50;;;13.50;99.90;;;;;;4967639;28;20070;-73
2022/08/10 05:10:27;;;;;;;1.00;0.73;;;13.50;99.90;;;;;;4965455;29;20039;-74
2022/08/10 05:12:53;;;;;;;0.98;0.88;;;14.00;99.90;;;;;;4963198;29;20050;-74
2022/08/10 05:15:18;;;;;;;1.30;1.13;;;13.60;99.90;;;;;;4967566;28;20375;-74
2022/08/10 05:17:45;;;;;;;0.90;0.60;;;14.10;99.90;;;;;;4971724;28;20039;-74
2022/08/10 05:20:11;;;;;;;1.20;1.05;;;13.90;99.90;;;;;;4961161;29;20051;-74
2022/08/10 05:22:42;;;;;;;0.08;0.08;;;14.00;99.90;;;;;;4960276;29;20048;-74
2022/08/10 05:25:14;;;;;;;2.25;1.05;;;14.10;99.90;;;;;;4962877;28;20051;-74
2022/08/10 05:27:40;;;;;;;0.68;0.60;;;14.20;99.90;;;;;;4977979;28;20517;-74
2022/08/10 05:30:08;;;;;;;2.78;1.67;;;14.30;99.90;;;;;;4976261;28;20082;-74
2022/08/10 05:32:34;;;;;;;6.82;1.70;;;14.40;99.90;;;;;;4980331;28;20511;-73
2022/08/10 05:35:00;;;;;;;1.08;0.95;;;14.50;99.90;;;;;;4962871;28;20047;-74
2022/08/10 05:37:29;;;;;;;1.42;1.25;;;15.20;99.90;;;;;;4958357;29;20054;-74
2022/08/10 05:39:55;;;;;;;0.70;0.70;;;14.70;99.90;;;;;;4961853;29;20055;-74
2022/08/10 05:42:22;;;;;;;1.65;1.45;;;14.80;99.90;;;;;;4961231;29;20053;-74
2022/08/10 05:44:48;;;;;;;2.20;1.38;;;14.90;99.90;;;;;;4959106;29;20050;-74
2022/08/10 05:47:13;;;;;;;0.88;0.75;;;15.00;99.90;;;;;;4961574;29;20047;-73
2022/08/10 05:49:39;;;;;;;1.60;0.60;;;15.00;99.90;;;;;;4961593;29;20078;-74
2022/08/10 05:52:05;;;;;;;1.27;1.08;;;15.10;99.90;;;;;;4962207;29;20048;-73
2022/08/10 05:54:31;;;;;;;0.65;0.55;;;15.10;99.90;;;;;;4962187;29;20133;-73
2022/08/10 05:56:57;;;;;;;2.10;0.15;;;15.20;99.90;;;;;;4961115;29;20138;-74
2022/08/10 05:59:28;;;;;;;0.63;0.57;;;15.20;99.90;;;;;;4961072;29;20055;-74
2022/08/10 06:01:55;;;;;;;0.10;0.10;;;15.30;99.90;;;;;;4962792;29;20047;-74
2022/08/10 06:04:29;;;;;;;1.80;1.23;;;15.40;99.90;;;;;;4960621;28;20043;-74
2022/08/10 06:06:57;;;;;;;1.08;0.75;;;15.50;99.90;;;;;;4961003;29;20042;-74
2022/08/10 06:09:24;;;;;;;0.38;0.32;;;15.50;99.90;;;;;;4959781;29;20114;-74
2022/08/10 06:11:52;;;;;;;0.85;0.68;;;15.60;99.90;;;;;;4960096;29;20039;-72
2022/08/10 06:17:04;;;;;;;2.00;1.35;;;16.10;99.90;;;;;;4958659;29;20051;-72
2022/08/10 06:19:30;;;;;;;0.32;0.32;;;16.70;99.90;;;;;;4958839;29;20114;-72
2022/08/10 06:22:00;;;;;;;2.55;1.42;;;17.10;99.90;;;;;;4959714;29;20039;-71
2022/08/10 06:24:30;;;;;;;1.30;0.75;;;17.70;99.90;;;;;;4958623;29;20089;-72
2022/08/10 06:26:55;;;;;;;1.83;1.10;;;17.80;99.90;;;;;;4958373;29;20050;-72
2022/08/10 06:29:22;;;;;;;1.70;0.82;;;18.00;99.90;;;;;;4957987;28;20051;-72
2022/08/10 06:31:50;;;;;;;0.35;0.35;;;18.50;99.90;;;;;;4958708;29;20035;-72
2022/08/10 06:34:23;;;;;;;0.13;0.13;;;18.60;99.90;;;;;;4972152;28;20458;-74
2022/08/10 06:36:51;;;;;;;0.40;0.40;;;19.10;99.90;;;;;;4958254;29;20054;-74
2022/08/10 06:39:17;;;;;;;0.43;0.43;;;19.50;99.90;;;;;;4957793;29;20047;-74
2022/08/10 06:41:46;;;;;;;0.45;0.32;;;19.90;99.90;;;;;;4957700;29;20106;-73
2022/08/10 06:44:21;;;;;;;0.17;0.17;;;20.30;99.90;;;;;;4956942;29;20135;-73
2022/08/10 06:46:49;;;;;;;0.75;0.30;;;21.40;99.90;;;;;;4959271;29;20051;-73
2022/08/10 06:49:20;;;;;;;0.10;0.10;;;21.70;99.90;;;;;;4958873;29;20066;-73
2022/08/10 06:51:46;;;;;;;0.30;0.30;;;22.10;99.90;;;;;;4972303;28;20042;-73
2022/08/10 06:54:16;;;;;;;0.60;0.47;;;21.80;99.90;;;;;;4977426;28;20421;-73
2022/08/10 06:56:44;;;;;;;0.00;0.00;;;22.40;99.90;;;;;;4977508;28;20427;-73
2022/08/10 06:59:19;;;;;;;0.00;0.00;;;22.60;99.90;;;;;;4977309;28;20137;-73
2022/08/10 07:01:49;;;;;;;0.60;0.20;;;23.10;99.90;;;;;;4976806;28;20110;-73
2022/08/10 07:04:22;;;;;;;0.65;0.35;;;23.00;99.90;;;;;;4976347;28;20049;-73
2022/08/10 07:06:49;;;;;;;0.45;0.28;;;23.20;99.90;;;;;;4976173;28;20054;-73
2022/08/10 07:09:16;;;;;;;0.40;0.32;;;23.60;99.90;;;;;;4976424;28;20047;-73
2022/08/10 07:11:44;;;;;;;0.30;0.30;;;23.40;99.90;;;;;;4976157;28;20457;-73
2022/08/10 07:14:12;;;;;;;0.20;0.20;;;23.30;99.90;;;;;;4975372;28;20047;-74
2022/08/10 07:16:43;;;;;;;0.20;0.15;;;23.70;99.90;;;;;;4974717;28;20050;-73
2022/08/10 07:19:10;;;;;;;0.30;0.30;;;24.10;99.90;;;;;;4974261;28;20050;-74
2022/08/10 07:21:38;;;;;;;1.55;0.75;;;24.30;99.90;;;;;;4972135;28;20050;-74
2022/08/10 07:24:08;;;;;;;0.22;0.13;;;24.40;99.90;;;;;;4973524;28;20062;-74
2022/08/10 07:26:36;;;;;;;0.10;0.10;;;24.60;99.90;;;;;;4972551;28;20050;-74
2022/08/10 07:29:06;;;;;;;0.00;0.00;;;25.20;99.90;;;;;;4972210;28;20057;-74
2022/08/10 07:31:32;;;;;;;0.82;0.65;;;25.00;97.50;;;;;;4972096;28;20585;-74
2022/08/10 07:34:01;;;;;;;0.98;0.30;;;25.60;96.10;;;;;;4972455;28;20093;-74
2022/08/10 07:36:29;;;;;;;0.13;0.10;;;26.00;81.60;;;;;;4972067;28;20050;-74
2022/08/10 07:38:59;;;;;;;0.55;0.50;;;25.90;87.50;;;;;;4970501;28;20050;-74
2022/08/10 07:41:30;;;;;;;0.40;0.40;;;25.70;87.30;;;;;;4969726;28;20462;-74
2022/08/10 07:43:58;;;;;;;0.10;0.10;;;25.70;81.30;;;;;;4972289;28;20583;-74
2022/08/10 07:46:26;;;;;;;0.75;0.52;;;25.70;84.40;;;;;;4969048;28;20089;-74
2022/08/10 07:49:17;;;;;;;0.30;0.25;;;25.90;82.30;;;;;;4971488;28;20050;-74
2022/08/10 07:51:43;;;;;;;0.20;0.17;;;26.40;66.60;;;;;;4965320;28;20058;-74
2022/08/10 07:54:14;;;;;;;1.38;0.47;;;27.00;57.50;;;;;;4971982;28;20364;-73
2022/08/10 07:56:44;;;;;;;0.45;0.35;;;27.30;55.40;;;;;;4970643;28;20047;-74
2022/08/10 07:59:14;;;;;;;0.10;0.10;;;27.10;54.50;;;;;;4972060;28;20054;-73
2022/08/10 08:01:45;;;;;;;0.10;0.10;;;26.50;34.00;;;;;;4973790;28;20059;-74
2022/08/10 08:04:13;;;;;;;1.10;0.38;;;26.50;52.40;;;;;;4973543;28;20405;-74
2022/08/10 08:06:41;;;;;;;0.00;0.00;;;26.40;41.10;;;;;;4970542;28;20185;-73
2022/08/10 08:09:07;;;;;;;1.45;0.25;;;26.60;38.90;;;;;;4971742;28;20569;-73
2022/08/10 08:11:35;;;;;;;0.82;0.32;;;26.50;38.60;;;;;;4972686;28;20834;-73
2022/08/10 08:14:02;;;;;;;0.30;0.22;;;27.20;37.30;;;;;;4971841;28;20622;-73
2022/08/10 08:16:29;;;;;;;0.13;0.13;;;27.60;31.30;;;;;;4972537;28;20121;-73
2022/08/10 08:18:56;;;;;;;0.30;0.30;;;27.40;25.00;;;;;;4971950;28;20051;-74
2022/08/10 08:21:22;;;;;;;0.00;0.00;;;27.70;24.30;;;;;;4971291;28;20073;-73
2022/08/10 08:23:50;;;;;;;0.10;0.00;;;28.50;19.30;;;;;;4979271;28;20474;-74
2022/08/10 08:26:17;;;;;;;2.42;1.10;;;28.30;9.40;;;;;;4969157;28;20049;-73
2022/08/10 08:28:44;;;;;;;0.00;0.00;;;26.70;18.60;;;;;;4977286;28;20457;-73
2022/08/10 08:31:14;;;;;;;0.15;0.13;;;27.40;25.80;;;;;;4977337;28;20406;-73
2022/08/10 08:33:43;;;;;;;0.45;0.15;;;27.70;15.40;;;;;;5000008;28;20050;-74
2022/08/10 08:36:12;;;;;;;0.30;0.30;;;28.20;12.40;;;;;;4999220;28;20046;-73
2022/08/10 08:38:39;;;;;;;0.10;0.10;;;28.50;12.90;;;;;;4997450;28;20042;-73
2022/08/10 08:41:23;;;;;;;6.90;1.33;;;28.50;5.30;;;;;;4986338;28;20375;-73
2022/08/10 08:44:10;;;;;;;1.75;0.60;;;28.50;4.00;;;;;;4977821;28;20089;-73
2022/08/10 08:47:06;;;;;;;0.00;0.00;;;28.40;4.40;;;;;;4979921;28;20393;-73
2022/08/10 08:49:42;;;;;;;;;;;27.10;11.90;;;;;;4980382;28;20409;-73
2022/08/10 08:52:13;;;;;;;1.52;0.75;;;27.70;11.60;;;;;;4979113;28;19922;-73
2022/08/10 08:54:56;;;;;;;0.15;0.10;;;28.00;15.60;;;;;;4981647;28;20054;-73
2022/08/10 08:57:40;;;;;;;0.00;0.00;;;28.00;17.50;;;;;;4984484;28;20060;-73
2022/08/10 09:00:13;;;;;;;0.08;0.08;;;29.00;6.00;;;;;;4999481;28;20045;-73
2022/08/10 09:03:06;;;;;;;0.52;0.15;;;29.20;4.00;;;;;;5000257;28;20061;-73
2022/08/10 09:05:50;;;;;;;0.17;0.17;;;28.50;3.40;;;;;;4999254;28;20054;-74
2022/08/10 09:08:37;;;;;;;0.60;0.35;;;29.00;1.00;;;;;;4999288;28;20050;-74
2022/08/10 09:11:20;;;;;;;0.08;0.08;;;29.20;1.60;;;;;;4999593;28;20047;-73
2022/08/10 09:14:10;;;;;;;0.15;0.10;;;29.80;1.00;;;;;;5000197;28;20419;-73
2022/08/10 09:17:08;;;;;;;0.28;0.20;;;29.80;1.00;;;;;;4998428;28;20047;-73
2022/08/10 09:20:03;;;;;;;0.00;0.00;;;29.40;1.90;;;;;;4987740;28;20137;-73
2022/08/10 09:22:50;;;;;;;0.38;0.13;;;29.20;2.90;;;;;;4998681;28;20137;-73
2022/08/10 09:25:22;;;;;;;0.30;0.20;;;29.90;1.00;;;;;;5001861;28;20065;-73
2022/08/10 09:27:58;;;;;;;0.50;0.50;;;30.20;1.00;;;;;;5000315;28;20054;-73
2022/08/10 09:30:45;;;;;;;0.75;0.45;;;30.50;1.00;;;;;;4998653;28;20038;-73
2022/08/10 09:33:14;;;;;;;1.90;0.68;;;30.60;1.00;;;;;;4979198;28;20101;-73
2022/08/10 09:36:07;;;;;;;0.00;0.00;;;30.40;1.00;;;;;;4979203;28;20055;-73
2022/08/10 09:38:39;;;;;;;0.20;0.10;;;31.10;1.00;;;;;;4980040;28;20039;-73
2022/08/10 09:41:18;;;;;;;0.00;0.00;;;30.70;1.00;;;;;;4979414;28;20046;-73
2022/08/10 09:43:55;;;;;;;0.08;0.08;;;30.50;1.00;;;;;;4979251;28;20050;-73
2022/08/10 09:46:59;;;;;;;0.15;0.15;;;30.10;1.00;;;;;;4980503;28;20486;-73
2022/08/10 09:49:42;;;;;;;0.60;0.22;;;30.00;1.00;;;;;;4979834;28;20090;-73
2022/08/10 09:52:36;;;;;;;0.10;0.10;;;28.60;1.00;;;;;;4978391;28;20104;-73
2022/08/10 09:55:33;;;;;;;0.15;0.15;;;28.40;1.00;;;;;;4980332;28;20123;-72
2022/08/10 09:58:13;;;;;;;0.13;0.13;;;28.60;1.00;;;;;;4976003;28;20055;-73
2022/08/10 10:00:46;;;;;;;0.30;0.20;;;28.50;1.00;;;;;;4960136;29;20051;-73
2022/08/10 10:03:28;;;;;;;0.00;0.00;;;28.50;1.00;;;;;;4960172;29;20470;-73
2022/08/10 10:06:27;;;;;;;0.10;0.10;;;28.50;1.00;;;;;;4962944;29;20561;-73
2022/08/10 10:08:58;;;;;;;0.00;0.00;;;28.00;1.00;;;;;;4977417;28;20074;-73
2022/08/10 10:11:56;;;;;;;0.13;0.13;;;28.00;1.00;;;;;;4961570;29;20122;-73
2022/08/10 10:17:59;;;;;;;0.20;0.13;;;28.60;1.00;;;;;;4962812;29;20506;-73
2022/08/10 10:21:03;;;;;;;0.00;0.00;;;28.90;1.00;;;;;;4961141;29;20054;-73
2022/08/10 10:23:46;;;;;;;0.00;0.00;;;28.40;1.00;;;;;;4963232;28;20183;-73
2022/08/10 10:26:30;;;;;;;1.23;0.45;;;28.40;1.00;;;;;;4961319;29;20047;-73
2022/08/10 10:29:15;;;;;;;0.43;0.28;;;28.10;1.00;;;;;;4959598;28;20043;-73
2022/08/10 10:31:53;;;;;;;0.10;0.08;;;28.50;1.00;;;;;;4961240;29;20054;-73
2022/08/10 10:34:34;;;;;;;0.00;0.00;;;29.10;1.00;;;;;;4960578;29;20043;-73
2022/08/10 10:37:01;;;;;;;11.70;0.65;;;29.10;1.00;;;;;;4958381;29;20079;-73
2022/08/10 10:39:27;;;;;;;0.10;0.10;;;29.10;1.00;;;;;;4958619;29;20085;-73
2022/08/10 10:42:15;;;;;;;0.75;0.28;;;29.20;1.00;;;;;;4958128;29;20447;-73
2022/08/10 10:45:13;;;;;;;0.00;0.00;;;29.30;1.00;;;;;;4958406;29;20114;-73
2022/08/10 10:47:58;;;;;;;1.27;0.55;;;29.10;1.00;;;;;;4959731;29;20104;-72
2022/08/10 10:50:33;;;;;;;0.28;0.20;;;29.10;1.00;;;;;;4958647;28;20051;-73
2022/08/10 10:53:26;;;;;;;0.00;0.00;;;29.20;1.00;;;;;;4958898;29;20051;-73
2022/08/10 10:56:21;;;;;;;0.10;0.10;;;29.10;1.00;;;;;;4959811;29;20102;-74
2022/08/10 10:59:02;;;;;;;0.10;0.05;;;29.30;1.00;;;;;;4960297;29;20505;-73
2022/08/10 11:02:01;;;;;;;2.20;0.45;;;29.50;1.00;;;;;;4961179;29;20192;-73
2022/08/10 11:04:41;;;;;;;0.10;0.00;;;29.60;1.00;;;;;;4960346;29;20435;-73
2022/08/10 11:07:30;;;;;;;0.10;0.10;;;29.90;1.00;;;;;;4962263;29;20094;-73
2022/08/10 11:10:01;;;;;;;0.10;0.08;;;29.40;1.00;;;;;;4963594;29;20502;-73
2022/08/10 11:12:42;;;;;;;0.47;0.30;;;29.60;1.00;;;;;;4961618;29;20410;-73
2022/08/10 11:15:25;;;;;;;0.00;0.00;;;29.10;1.00;;;;;;4960638;29;20054;-73
2022/08/10 11:18:04;;;;;;;0.57;0.22;;;28.90;1.00;;;;;;4960210;29;20047;-73
2022/08/10 11:20:53;;;;;;;0.00;0.00;;;28.90;1.00;;;;;;4961142;29;20054;-73
2022/08/10 11:23:30;;;;;;;0.25;0.20;;;29.30;1.00;;;;;;4959935;28;20174;-73
2022/08/10 11:26:15;;;;;;;0.28;0.10;;;30.00;1.00;;;;;;4960125;29;20126;-73
2022/08/10 11:28:50;;;;;;;0.30;0.17;;;30.30;1.00;;;;;;4959623;29;20047;-73
2022/08/10 11:31:23;;;;;;;1.65;0.80;;;31.10;1.00;;;;;;4960432;28;20047;-73
2022/08/10 11:34:13;;;;;;;0.22;0.17;;;31.40;1.00;;;;;;4959871;29;20047;-73
2022/08/10 11:37:01;;;;;;;0.55;0.05;;;31.70;1.00;;;;;;4959075;29;20051;-73
2022/08/10 11:39:42;;;;;;;0.00;0.00;;;32.40;1.00;;;;;;4960228;29;20126;-73
2022/08/10 11:42:30;;;;;;;0.00;0.00;;;33.20;1.00;;;;;;4958804;29;20066;-73
2022/08/10 11:44:59;;;;;;;1.27;0.22;;;33.30;1.00;;;;;;4959231;29;20078;-73
2022/08/10 11:47:45;;;;;;;0.35;0.22;;;33.10;1.00;;;;;;4960569;29;20051;-73
2022/08/10 11:50:11;;;;;;;1.95;0.47;;;33.00;1.00;;;;;;4962109;29;20495;-73
2022/08/10 11:52:56;;;;;;;0.00;0.00;;;33.70;1.00;;;;;;4960876;29;20070;-73
2022/08/10 11:55:32;;;;;;;0.90;0.55;;;33.70;1.00;;;;;;4959817;28;20406;-73
2022/08/10 12:00:55;;;;;;;0.00;0.00;;;33.90;1.00;;;;;;4961878;29;20087;-73
2022/08/10 12:03:21;;;;;;;0.00;0.00;;;33.80;1.00;;;;;;4965237;29;20043;-74
2022/08/10 12:05:50;;;;;;;1.35;0.30;;;34.30;1.00;;;;;;4965291;29;20122;-73
2022/08/10 12:08:18;;;;;;;0.10;0.10;;;34.40;1.00;;;;;;4962081;29;20122;-73
2022/08/10 12:10:45;;;;;;;0.35;0.28;;;35.00;1.00;;;;;;4964238;29;20047;-73
2022/08/10 12:13:17;;;;;;;0.00;0.00;;;33.90;1.00;;;;;;4967422;29;20039;-73
2022/08/10 12:16:00;;;;;;;0.03;0.03;;;34.40;1.00;;;;;;4965056;29;20051;-73
2022/08/10 12:18:32;;;;;;;0.10;0.10;;;35.20;1.00;;;;;;4965156;29;20047;-74
2022/08/10 12:21:04;;;;;;;2.63;0.32;;;33.70;1.00;;;;;;4966360;29;20039;-74
2022/08/10 12:23:44;;;;;;;0.13;0.10;;;34.30;1.00;;;;;;4966325;28;20082;-74
2022/08/10 12:26:17;;;;;;;0.00;0.00;;;34.60;1.00;;;;;;4969266;29;20114;-74
2022/08/10 12:29:02;;;;;;;0.25;0.13;;;35.30;1.00;;;;;;4964332;29;20118;-74
2022/08/10 12:31:56;;;;;;;0.00;0.00;;;35.70;1.00;;;;;;4964092;29;20051;-74
2022/08/10 12:34:40;;;;;;;0.05;0.05;;;35.70;1.00;;;;;;4979889;28;20047;-73
2022/08/10 12:37:21;;;;;;;3.85;0.75;;;35.80;1.00;;;;;;4966462;29;20051;-74
2022/08/10 12:40:14;;;;;;;0.20;0.15;;;34.80;1.00;;;;;;4963638;28;20047;-73
2022/08/10 12:43:08;;;;;;;0.00;0.00;;;34.50;1.00;;;;;;4962000;29;20051;-74
2022/08/10 12:45:38;;;;;;;0.00;0.00;;;34.80;1.00;;;;;;4981985;28;20050;-74
2022/08/10 12:48:34;;;;;;;1.35;0.45;;;35.00;1.00;;;;;;4981939;28;20047;-74
2022/08/10 12:51:06;;;;;;;;;;;35.30;1.00;;;;;;4970845;28;20058;-74
2022/08/10 12:53:53;;;;;;;0.00;0.00;;;35.70;1.00;;;;;;4983264;28;20296;-74
2022/08/10 12:56:25;;;;;;;0.08;0.00;;;35.60;1.00;;;;;;4971530;28;20051;-74
2022/08/10 12:58:52;;;;;;;0.00;0.00;;;35.50;1.00;;;;;;4972881;28;20108;-74
2022/08/10 13:01:21;;;;;;;0.20;0.20;;;35.40;1.00;;;;;;4975319;28;20520;-75
2022/08/10 13:03:50;;;;;;;0.10;0.10;;;34.20;1.00;;;;;;4975471;28;20042;-74
2022/08/10 13:06:16;;;;;;;3.60;0.30;;;34.20;1.00;;;;;;4975894;28;20093;-73
2022/08/10 13:11:31;;;;;;;0.00;0.00;;;33.80;1.00;;;;;;4978075;28;20082;-74
2022/08/10 13:14:02;;;;;;;0.50;0.40;;;34.10;1.00;;;;;;4977227;28;20043;-74
2022/08/10 13:16:29;;;;;;;0.00;0.00;;;34.20;1.00;;;;;;4978475;28;20061;-74
2022/08/10 13:18:59;;;;;;;0.20;0.15;;;34.30;1.00;;;;;;4977100;28;20043;-74
2022/08/10 13:21:32;;;;;;;0.10;0.10;;;34.50;1.00;;;;;;4976009;28;20094;-74
2022/08/10 13:24:05;;;;;;;0.28;0.13;;;34.90;1.00;;;;;;4973580;28;20069;-74
2022/08/10 13:26:36;;;;;;;0.00;0.00;;;35.10;1.00;;;;;;4976187;28;20055;-74
2022/08/10 13:29:03;;;;;;;0.28;0.28;;;34.50;1.00;;;;;;4973423;28;20051;-74
2022/08/10 13:31:33;;;;;;;0.00;0.00;;;34.60;1.00;;;;;;4973750;28;20050;-74
2022/08/10 13:34:04;;;;;;;0.15;0.10;;;34.10;1.00;;;;;;4973196;28;20393;-74